createdAt,value
2023-02-04T00:00:43.168Z,-11.63
2023-02-04T00:03:13.140Z,-11.59
2023-02-04T00:05:42.181Z,-11.63
2023-02-04T00:08:11.111Z,-11.67
2023-02-04T00:10:40.044Z,-11.59
2023-02-04T00:13:08.975Z,-11.59
2023-02-04T00:15:37.917Z,-11.60
2023-02-04T00:18:09.489Z,-11.59
2023-02-04T00:20:38.289Z,-11.61
2023-02-04T00:23:07.206Z,-11.57
2023-02-04T00:25:36.003Z,-11.52
2023-02-04T00:28:05.026Z,-11.39
2023-02-04T00:30:34.030Z,-11.34
2023-02-04T00:33:04.175Z,-11.29
2023-02-04T00:35:33.187Z,-11.28
2023-02-04T00:38:02.154Z,-11.33
2023-02-04T00:40:31.086Z,-11.32
2023-02-04T00:43:00.488Z,-11.30
2023-02-04T00:45:29.369Z,-11.29
2023-02-04T00:47:58.146Z,-11.31
2023-02-04T00:50:27.217Z,-11.31
2023-02-04T00:52:56.207Z,-11.31
2023-02-04T00:55:25.198Z,-11.25
2023-02-04T00:57:53.982Z,-11.18
2023-02-04T01:00:23.722Z,-11.14
2023-02-04T01:02:53.073Z,-11.13
2023-02-04T01:05:21.849Z,-11.09
2023-02-04T01:07:50.848Z,-11.01
2023-02-04T01:10:20.413Z,-10.99
2023-02-04T01:12:49.520Z,-10.97
2023-02-04T01:15:18.743Z,-10.95
2023-02-04T01:17:47.552Z,-10.92
2023-02-04T01:20:16.608Z,-10.91
2023-02-04T01:22:45.399Z,-10.91
2023-02-04T01:25:14.145Z,-10.93
2023-02-04T01:27:46.024Z,-10.90
2023-02-04T01:30:16.386Z,-10.91
2023-02-04T01:32:45.199Z,-10.94
2023-02-04T01:35:14.280Z,-10.90
2023-02-04T01:37:43.117Z,-10.88
2023-02-04T01:40:12.657Z,-10.85
2023-02-04T01:42:41.852Z,-10.76
2023-02-04T01:45:11.858Z,-10.66
2023-02-04T01:47:41.825Z,-10.63
2023-02-04T01:50:13.924Z,-10.50
2023-02-04T01:52:46.248Z,-10.45
2023-02-04T01:55:20.813Z,-10.46
2023-02-04T01:57:53.609Z,-10.51
2023-02-04T02:00:33.551Z,-10.49
2023-02-04T02:03:04.068Z,-10.49
2023-02-04T02:05:40.283Z,-10.46
2023-02-04T02:08:11.119Z,-10.38
2023-02-04T02:10:42.822Z,-10.30
2023-02-04T02:13:17.074Z,-10.22
2023-02-04T02:15:47.327Z,-10.14
2023-02-04T02:18:17.187Z,-10.05
2023-02-04T02:20:47.530Z,-9.94
2023-02-04T02:23:45.653Z,-9.81
2023-02-04T02:26:16.022Z,-9.73
2023-02-04T02:28:46.231Z,-9.51
2023-02-04T02:31:17.058Z,-8.55
2023-02-04T02:33:46.412Z,-6.18
2023-02-04T02:36:15.704Z,-4.19
2023-02-04T02:38:45.507Z,-3.28
2023-02-04T02:41:14.484Z,-3.33
2023-02-04T02:43:43.384Z,-3.49
2023-02-04T02:46:12.702Z,-2.86
2023-02-04T02:48:41.564Z,-1.79
2023-02-04T02:51:10.506Z,-0.79
2023-02-04T02:53:39.450Z,0.03
2023-02-04T02:56:10.496Z,0.92
2023-02-04T02:58:39.777Z,1.63
2023-02-04T03:01:11.091Z,2.16
2023-02-04T03:03:46.576Z,2.77
2023-02-04T03:06:26.209Z,3.43
2023-02-04T03:08:57.698Z,3.91
2023-02-04T03:11:30.340Z,4.20
2023-02-04T03:14:03.443Z,4.13
2023-02-04T03:16:37.411Z,4.05
2023-02-04T03:19:08.423Z,4.17
2023-02-04T03:21:38.488Z,3.37
2023-02-04T03:24:07.860Z,1.41
2023-02-04T03:26:39.052Z,-0.38
2023-02-04T03:29:10.987Z,-1.44
2023-02-04T03:31:40.003Z,-1.36
2023-02-04T03:34:09.060Z,-0.87
2023-02-04T03:36:38.337Z,-0.09
2023-02-04T03:39:07.096Z,0.97
2023-02-04T03:41:35.936Z,1.63
2023-02-04T03:44:13.665Z,2.66
2023-02-04T03:46:42.555Z,2.74
2023-02-04T03:49:11.453Z,2.17
2023-02-04T03:51:40.222Z,2.73
2023-02-04T03:54:09.097Z,3.20
2023-02-04T03:56:37.821Z,3.09
2023-02-04T03:59:06.968Z,3.25
2023-02-04T04:01:36.693Z,3.45
2023-02-04T04:04:05.799Z,3.50
2023-02-04T04:06:34.597Z,3.98
2023-02-04T04:09:03.543Z,5.06
2023-02-04T04:11:32.588Z,6.19
2023-02-04T04:14:02.026Z,7.11
2023-02-04T04:16:30.873Z,7.45
2023-02-04T04:18:59.681Z,7.33
2023-02-04T04:21:28.526Z,7.12
2023-02-04T04:23:57.615Z,7.27
2023-02-04T04:26:26.435Z,7.77
2023-02-04T04:28:55.289Z,7.64
2023-02-04T04:31:24.390Z,7.37
2023-02-04T04:33:53.153Z,7.58
2023-02-04T04:36:21.912Z,7.92
2023-02-04T04:38:50.712Z,8.13
2023-02-04T04:41:19.508Z,8.45
2023-02-04T04:43:48.321Z,8.80
2023-02-04T04:46:17.118Z,9.48
2023-02-04T04:48:46.048Z,10.22
2023-02-04T04:51:14.910Z,10.79
2023-02-04T04:53:43.738Z,11.28
2023-02-04T04:56:12.662Z,11.73
2023-02-04T04:58:41.602Z,11.39
2023-02-04T05:01:11.045Z,11.37
2023-02-04T05:03:40.233Z,11.79
2023-02-04T05:06:09.969Z,11.90
2023-02-04T05:08:38.793Z,11.76
2023-02-04T05:11:07.575Z,11.10
2023-02-04T05:13:36.407Z,10.65
2023-02-04T05:16:05.536Z,10.32
2023-02-04T05:18:34.432Z,9.68
2023-02-04T05:21:03.207Z,8.79
2023-02-04T05:23:32.000Z,8.74
2023-02-04T05:26:00.911Z,9.34
2023-02-04T05:28:29.888Z,9.42
2023-02-04T05:30:58.748Z,10.41
2023-02-04T05:33:27.799Z,11.68
2023-02-04T05:35:56.889Z,11.94
2023-02-04T05:38:25.715Z,10.60
2023-02-04T05:40:54.544Z,10.37
2023-02-04T05:43:23.298Z,9.91
2023-02-04T05:45:52.219Z,8.97
2023-02-04T05:48:21.076Z,8.83
2023-02-04T05:50:49.862Z,9.37
2023-02-04T05:53:18.662Z,9.76
2023-02-04T05:55:47.625Z,9.37
2023-02-04T05:58:16.622Z,8.66
2023-02-04T06:00:46.051Z,9.36
2023-02-04T06:03:15.248Z,10.32
2023-02-04T06:05:44.854Z,10.91
2023-02-04T06:08:16.401Z,11.07
2023-02-04T06:10:45.327Z,11.16
2023-02-04T06:13:14.266Z,11.15
2023-02-04T06:15:43.100Z,11.06
2023-02-04T06:18:12.300Z,11.47
2023-02-04T06:20:41.164Z,12.49
2023-02-04T06:23:10.100Z,12.91
2023-02-04T06:25:39.032Z,12.43
2023-02-04T06:28:07.867Z,12.56
2023-02-04T06:30:38.086Z,12.73
2023-02-04T06:33:06.922Z,13.04
2023-02-04T06:35:35.770Z,13.30
2023-02-04T06:38:04.685Z,12.52
2023-02-04T06:40:33.924Z,9.18
2023-02-04T06:43:04.505Z,5.82
2023-02-04T06:45:33.631Z,2.91
2023-02-04T06:48:02.614Z,1.06
2023-02-04T06:50:31.556Z,-0.05
2023-02-04T06:53:00.561Z,-0.94
2023-02-04T06:55:29.463Z,-1.46
2023-02-04T06:57:58.268Z,-1.74
2023-02-04T07:00:27.612Z,-2.18
2023-02-04T07:02:57.361Z,-2.73
2023-02-04T07:05:26.613Z,-3.20
2023-02-04T07:07:55.688Z,-3.65
2023-02-04T07:10:24.516Z,-4.07
2023-02-04T07:12:53.333Z,-4.42
2023-02-04T07:15:22.196Z,-4.69
2023-02-04T07:17:51.193Z,-4.90
2023-02-04T07:20:20.207Z,-4.93
2023-02-04T07:22:49.096Z,-5.15
2023-02-04T07:25:18.720Z,-5.48
2023-02-04T07:27:47.612Z,-5.63
2023-02-04T07:30:19.071Z,-5.76
2023-02-04T07:32:48.077Z,-5.94
2023-02-04T07:35:18.253Z,-5.83
2023-02-04T07:37:47.192Z,-5.91
2023-02-04T07:40:16.246Z,-6.08
2023-02-04T07:42:45.047Z,-6.06
2023-02-04T07:45:18.595Z,-6.04
2023-02-04T07:47:47.447Z,-6.07
2023-02-04T07:50:16.796Z,-6.19
2023-02-04T07:52:45.637Z,-6.27
2023-02-04T07:55:14.545Z,-6.36
2023-02-04T07:57:43.360Z,-6.28
2023-02-04T08:00:14.968Z,-6.33
2023-02-04T08:02:44.093Z,-6.35
2023-02-04T08:05:13.367Z,-6.38
2023-02-04T08:07:42.703Z,-6.33
2023-02-04T08:10:12.738Z,-6.32
2023-02-04T08:12:41.721Z,-4.92
2023-02-04T08:15:11.670Z,-2.31
2023-02-04T08:17:40.831Z,-0.11
2023-02-04T08:20:10.296Z,1.58
2023-02-04T08:22:39.192Z,3.00
2023-02-04T08:25:08.241Z,4.04
2023-02-04T08:27:37.027Z,4.80
2023-02-04T08:30:06.407Z,4.96
2023-02-04T08:32:35.296Z,4.85
2023-02-04T08:35:06.356Z,4.76
2023-02-04T08:37:36.237Z,4.75
2023-02-04T08:40:05.326Z,4.77
2023-02-04T08:42:35.414Z,3.97
2023-02-04T08:45:04.594Z,2.86
2023-02-04T08:47:33.505Z,1.45
2023-02-04T08:50:02.493Z,-0.09
2023-02-04T08:52:32.099Z,-1.26
2023-02-04T08:55:00.988Z,-1.63
2023-02-04T08:57:31.801Z,-1.62
2023-02-04T09:00:00.930Z,-2.26
2023-02-04T09:02:30.245Z,-3.24
2023-02-04T09:04:59.512Z,-4.12
2023-02-04T09:07:28.345Z,-4.83
2023-02-04T09:09:57.319Z,-5.35
2023-02-04T09:12:26.828Z,-5.80
2023-02-04T09:14:55.661Z,-6.04
2023-02-04T09:17:24.706Z,-5.88
2023-02-04T09:19:53.624Z,-5.80
2023-02-04T09:22:22.535Z,-5.86
2023-02-04T09:24:51.492Z,-6.31
2023-02-04T09:27:20.633Z,-6.72
2023-02-04T09:29:49.689Z,-7.17
2023-02-04T09:32:18.509Z,-7.56
2023-02-04T09:34:47.309Z,-7.86
2023-02-04T09:37:16.148Z,-8.11
2023-02-04T09:39:45.028Z,-8.32
2023-02-04T09:42:17.876Z,-8.45
2023-02-04T09:44:46.731Z,-8.61
2023-02-04T09:47:25.077Z,-8.77
2023-02-04T09:49:54.180Z,-8.85
2023-02-04T09:52:25.271Z,-8.97
2023-02-04T09:54:54.275Z,-9.15
2023-02-04T09:57:23.169Z,-9.35
2023-02-04T09:59:54.410Z,-9.41
2023-02-04T10:02:26.767Z,-9.54
2023-02-04T10:04:58.705Z,-9.70
2023-02-04T10:07:28.492Z,-9.88
2023-02-04T10:09:57.495Z,-10.05
2023-02-04T10:12:26.631Z,-10.18
2023-02-04T10:14:55.656Z,-10.34
2023-02-04T10:17:24.684Z,-10.43
2023-02-04T10:19:53.850Z,-10.55
2023-02-04T10:22:24.245Z,-10.62
2023-02-04T10:24:53.296Z,-10.66
2023-02-04T10:27:22.270Z,-10.69
2023-02-04T10:30:00.035Z,-10.75
2023-02-04T10:32:34.500Z,-10.76
2023-02-04T10:35:05.672Z,-10.77
2023-02-04T10:37:34.609Z,-10.81
2023-02-04T10:40:03.481Z,-10.80
2023-02-04T10:42:33.335Z,-10.84
2023-02-04T10:45:02.324Z,-10.89
2023-02-04T10:47:33.226Z,-10.98
2023-02-04T10:50:23.049Z,-11.02
2023-02-04T10:53:17.826Z,-11.09
2023-02-04T10:55:51.914Z,-11.16
2023-02-04T10:58:28.072Z,-11.20
2023-02-04T11:00:58.215Z,-11.29
2023-02-04T11:03:31.415Z,-11.23
2023-02-04T11:06:01.989Z,-11.22
2023-02-04T11:08:37.099Z,-11.22
2023-02-04T11:11:18.315Z,-11.23
2023-02-04T11:13:59.077Z,-11.29
2023-02-04T11:16:31.061Z,-11.38
2023-02-04T11:19:01.640Z,-11.44
2023-02-04T11:21:33.659Z,-11.51
2023-02-04T11:24:14.753Z,-11.53
2023-02-04T11:26:46.419Z,-11.52
2023-02-04T11:29:35.437Z,-11.54
2023-02-04T11:32:29.173Z,-11.59
2023-02-04T11:35:14.152Z,-11.62
2023-02-04T11:37:44.248Z,-11.67
2023-02-04T11:40:35.235Z,-11.72
2023-02-04T11:43:17.471Z,-11.79
2023-02-04T11:45:47.572Z,-11.76
2023-02-04T11:48:20.417Z,-11.83
2023-02-04T11:51:00.133Z,-11.79
2023-02-04T11:53:35.139Z,-11.82
2023-02-04T11:56:04.489Z,-11.80
2023-02-04T11:58:33.806Z,-11.94
2023-02-04T12:01:03.622Z,-11.85
2023-02-04T12:03:36.771Z,-11.86
2023-02-04T12:06:06.169Z,-11.88
2023-02-04T12:08:37.337Z,-11.91
2023-02-04T12:11:28.089Z,-12.03
2023-02-04T12:14:13.523Z,-12.07
2023-02-04T12:16:46.988Z,-12.06
2023-02-04T12:19:16.035Z,-12.07
2023-02-04T12:21:44.815Z,-12.09
2023-02-04T12:24:13.772Z,-12.18
2023-02-04T12:26:59.289Z,-12.13
2023-02-04T12:29:28.385Z,-12.20
2023-02-04T12:31:57.580Z,-12.36
2023-02-04T12:34:26.583Z,-12.27
2023-02-04T12:36:55.588Z,-12.28
2023-02-04T12:39:24.542Z,-12.16
2023-02-04T12:41:53.391Z,-12.18
2023-02-04T12:44:22.337Z,-12.20
2023-02-04T12:46:51.896Z,-12.21
2023-02-04T12:49:20.805Z,-12.22
2023-02-04T12:51:49.715Z,-12.24
2023-02-04T12:54:19.962Z,-12.31
2023-02-04T12:56:50.778Z,-12.43
2023-02-04T12:59:19.785Z,-12.35
2023-02-04T13:01:49.364Z,-12.36
2023-02-04T13:04:18.841Z,-12.32
2023-02-04T13:06:47.769Z,-12.35
2023-02-04T13:09:16.722Z,-12.35
2023-02-04T13:11:46.379Z,-12.37
2023-02-04T13:14:15.203Z,-12.41
2023-02-04T13:16:44.162Z,-12.48
2023-02-04T13:19:13.081Z,-12.49
2023-02-04T13:21:42.109Z,-12.54
2023-02-04T13:24:11.009Z,-12.61
2023-02-04T13:26:40.020Z,-12.68
2023-02-04T13:29:08.999Z,-12.58
2023-02-04T13:31:37.983Z,-12.62
2023-02-04T13:34:06.766Z,-12.65
2023-02-04T13:36:35.666Z,-12.69
2023-02-04T13:39:04.628Z,-12.81
2023-02-04T13:41:33.864Z,-12.84
2023-02-04T13:44:03.402Z,-12.87
2023-02-04T13:46:32.699Z,-12.92
2023-02-04T13:49:01.632Z,-12.92
2023-02-04T13:51:31.293Z,-12.92
2023-02-04T13:54:01.087Z,-13.00
2023-02-04T13:56:31.505Z,-12.99
2023-02-04T13:59:00.543Z,-13.04
2023-02-04T14:01:30.953Z,-13.05
2023-02-04T14:04:00.444Z,-13.06
2023-02-04T14:06:34.626Z,-13.10
2023-02-04T14:09:04.052Z,-13.16
2023-02-04T14:11:32.933Z,-13.26
2023-02-04T14:14:01.848Z,-13.31
2023-02-04T14:16:30.710Z,-13.32
2023-02-04T14:18:59.815Z,-13.34
2023-02-04T14:21:28.824Z,-13.35
2023-02-04T14:23:57.647Z,-13.31
2023-02-04T14:26:26.632Z,-13.24
2023-02-04T14:28:55.533Z,-13.19
2023-02-04T14:31:24.530Z,-13.21
2023-02-04T14:33:53.502Z,-13.31
2023-02-04T14:36:22.859Z,-13.35
2023-02-04T14:38:51.769Z,-13.35
2023-02-04T14:41:22.144Z,-13.44
2023-02-04T14:43:50.986Z,-13.52
2023-02-04T14:46:20.481Z,-13.52
2023-02-04T14:48:52.620Z,-13.51
2023-02-04T14:51:21.642Z,-13.45
2023-02-04T14:53:50.632Z,-13.34
2023-02-04T14:56:20.144Z,-13.23
2023-02-04T14:58:49.115Z,-13.10
2023-02-04T15:01:20.326Z,-12.95
2023-02-04T15:03:49.603Z,-12.84
2023-02-04T15:06:18.497Z,-12.70
2023-02-04T15:08:47.359Z,-12.61
2023-02-04T15:11:16.265Z,-12.49
2023-02-04T15:13:45.140Z,-12.40
2023-02-04T15:16:15.427Z,-12.25
2023-02-04T15:18:44.490Z,-12.16
2023-02-04T15:21:13.779Z,-12.10
2023-02-04T15:23:45.051Z,-12.02
2023-02-04T15:26:15.016Z,-12.00
2023-02-04T15:28:43.990Z,-12.04
2023-02-04T15:31:13.145Z,-11.97
2023-02-04T15:33:45.911Z,-11.80
2023-02-04T15:36:14.904Z,-11.77
2023-02-04T15:38:43.749Z,-11.68
2023-02-04T15:41:13.094Z,-11.64
2023-02-04T15:43:41.856Z,-11.66
2023-02-04T15:46:10.786Z,-11.70
2023-02-04T15:48:40.045Z,-11.75
2023-02-04T15:51:08.906Z,-11.75
2023-02-04T15:53:38.400Z,-11.74
2023-02-04T15:56:07.749Z,-11.75
2023-02-04T15:58:36.969Z,-11.73
2023-02-04T16:01:07.299Z,-11.66
2023-02-04T16:03:37.199Z,-11.62
2023-02-04T16:06:06.364Z,-11.58
2023-02-04T16:08:35.496Z,-11.61
2023-02-04T16:11:38.884Z,-11.59
2023-02-04T16:14:08.408Z,-11.62
2023-02-04T16:16:37.307Z,-11.63
2023-02-04T16:19:06.446Z,-11.60
2023-02-04T16:21:35.471Z,-11.54
2023-02-04T16:24:04.662Z,-11.49
2023-02-04T16:26:33.715Z,-11.44
2023-02-04T16:29:02.739Z,-11.39
2023-02-04T16:31:31.701Z,-11.43
2023-02-04T16:34:00.611Z,-11.45
2023-02-04T16:36:29.674Z,-11.47
2023-02-04T16:39:00.113Z,-11.53
2023-02-04T16:41:29.217Z,-11.57
2023-02-04T16:43:58.875Z,-11.49
2023-02-04T16:46:29.332Z,-11.48
2023-02-04T16:48:58.612Z,-11.61
2023-02-04T16:51:28.012Z,-11.65
2023-02-04T16:53:57.026Z,-11.67
2023-02-04T16:56:27.772Z,-11.78
2023-02-04T16:58:56.625Z,-11.82
2023-02-04T17:01:26.434Z,-11.97
2023-02-04T17:03:58.826Z,-12.01
2023-02-04T17:06:32.731Z,-12.11
2023-02-04T17:09:01.605Z,-12.20
2023-02-04T17:11:30.645Z,-12.28
2023-02-04T17:14:07.752Z,-12.39
2023-02-04T17:16:37.395Z,-12.38
2023-02-04T17:19:06.373Z,-12.48
2023-02-04T17:21:35.299Z,-12.64
2023-02-04T17:24:04.576Z,-12.73
2023-02-04T17:26:37.959Z,-12.86
2023-02-04T17:29:15.949Z,-12.89
2023-02-04T17:31:45.688Z,-13.07
2023-02-04T17:34:14.670Z,-13.32
2023-02-04T17:36:43.553Z,-13.41
2023-02-04T17:39:12.459Z,-13.49
2023-02-04T17:41:41.386Z,-13.54
2023-02-04T17:44:10.460Z,-13.63
2023-02-04T17:46:39.410Z,-13.74
2023-02-04T17:49:08.287Z,-13.75
2023-02-04T17:51:37.170Z,-13.87
2023-02-04T17:54:06.053Z,-13.91
2023-02-04T17:56:35.375Z,-13.94
2023-02-04T17:59:06.937Z,-13.98
2023-02-04T18:01:36.407Z,-14.02
2023-02-04T18:04:12.602Z,-14.04
2023-02-04T18:06:41.856Z,-13.98
2023-02-04T18:09:17.951Z,-13.99
2023-02-04T18:11:46.845Z,-13.98
2023-02-04T18:14:28.574Z,-14.10
2023-02-04T18:17:01.148Z,-14.00
2023-02-04T18:19:32.317Z,-13.98
2023-02-04T18:22:01.638Z,-14.02
2023-02-04T18:24:36.900Z,-14.04
2023-02-04T18:27:24.112Z,-14.05
2023-02-04T18:29:56.225Z,-14.22
2023-02-04T18:32:37.203Z,-14.19
2023-02-04T18:35:33.789Z,-14.26
2023-02-04T18:38:03.221Z,-14.49
2023-02-04T18:40:34.094Z,-14.36
2023-02-04T18:43:15.144Z,-14.37
2023-02-04T18:45:44.059Z,-14.43
2023-02-04T18:48:22.127Z,-14.47
2023-02-04T18:50:52.850Z,-14.49
2023-02-04T18:53:29.211Z,-14.55
2023-02-04T18:56:02.451Z,-14.53
2023-02-04T18:58:41.434Z,-14.53
2023-02-04T19:01:15.928Z,-14.51
2023-02-04T19:04:02.795Z,-14.54
2023-02-04T19:06:40.219Z,-14.54
2023-02-04T19:09:14.849Z,-14.51
2023-02-04T19:12:14.877Z,-14.53
2023-02-04T19:14:46.148Z,-14.57
2023-02-04T19:17:18.138Z,-14.57
2023-02-04T19:19:57.508Z,-14.59
2023-02-04T19:22:45.642Z,-14.60
2023-02-04T19:25:23.399Z,-14.65
2023-02-04T19:27:55.482Z,-14.69
2023-02-04T19:30:27.350Z,-14.74
2023-02-04T19:32:58.221Z,-14.77
2023-02-04T19:35:41.508Z,-14.77
2023-02-04T19:38:31.536Z,-14.79
2023-02-04T19:41:01.171Z,-14.87
2023-02-04T19:43:39.655Z,-14.87
2023-02-04T19:46:35.166Z,-14.96
2023-02-04T19:49:20.899Z,-15.03
2023-02-04T19:51:54.050Z,-15.00
2023-02-04T19:54:25.846Z,-15.00
2023-02-04T19:56:56.072Z,-14.98
2023-02-04T19:59:36.527Z,-15.02
2023-02-04T20:02:09.475Z,-15.06
2023-02-04T20:04:44.177Z,-15.23
2023-02-04T20:07:27.782Z,-15.33
2023-02-04T20:10:25.360Z,-15.37
2023-02-04T20:13:01.456Z,-15.36
2023-02-04T20:15:31.815Z,-15.45
2023-02-04T20:18:01.111Z,-15.49
2023-02-04T20:20:32.221Z,-15.50
2023-02-04T20:23:02.942Z,-15.52
2023-02-04T20:25:42.481Z,-15.49
2023-02-04T20:28:40.429Z,-15.54
2023-02-04T20:31:35.597Z,-15.55
2023-02-04T20:34:18.290Z,-15.68
2023-02-04T20:36:48.311Z,-15.60
2023-02-04T20:39:24.489Z,-15.56
2023-02-04T20:41:54.073Z,-15.56
2023-02-04T20:44:35.533Z,-15.56
2023-02-04T20:47:26.670Z,-15.56
2023-02-04T20:49:59.850Z,-15.60
2023-02-04T20:52:41.053Z,-15.64
2023-02-04T20:55:28.999Z,-15.68
2023-02-04T20:58:18.895Z,-15.69
2023-02-04T21:00:54.687Z,-15.74
2023-02-04T21:03:30.985Z,-15.80
2023-02-04T21:06:01.384Z,-15.79
2023-02-04T21:08:33.834Z,-15.76
2023-02-04T21:11:03.683Z,-15.83
2023-02-04T21:13:33.072Z,-15.80
2023-02-04T21:16:02.319Z,-15.78
2023-02-04T21:18:35.397Z,-15.76
2023-02-04T21:21:08.033Z,-15.78
2023-02-04T21:23:37.917Z,-15.79
2023-02-04T21:26:07.744Z,-15.72
2023-02-04T21:28:36.646Z,-15.72
2023-02-04T21:31:05.800Z,-15.64
2023-02-04T21:33:34.930Z,-15.60
2023-02-04T21:36:04.091Z,-15.58
2023-02-04T21:38:32.899Z,-15.52
2023-02-04T21:41:01.772Z,-15.48
2023-02-04T21:43:31.035Z,-15.57
2023-02-04T21:46:00.086Z,-15.40
2023-02-04T21:48:29.175Z,-15.29
2023-02-04T21:50:58.084Z,-15.24
2023-02-04T21:53:26.963Z,-15.27
2023-02-04T21:55:56.994Z,-15.08
2023-02-04T21:58:27.097Z,-14.91
2023-02-04T22:00:57.490Z,-14.87
2023-02-04T22:03:26.585Z,-14.81
2023-02-04T22:05:55.854Z,-14.69
2023-02-04T22:08:24.853Z,-14.65
2023-02-04T22:10:53.901Z,-14.59
2023-02-04T22:13:22.933Z,-14.63
2023-02-04T22:15:52.798Z,-14.45
2023-02-04T22:18:21.781Z,-14.68
2023-02-04T22:20:50.676Z,-14.48
2023-02-04T22:23:19.672Z,-14.43
2023-02-04T22:25:48.569Z,-14.40
2023-02-04T22:28:17.781Z,-14.35
2023-02-04T22:30:46.700Z,-14.39
2023-02-04T22:33:15.700Z,-14.38
2023-02-04T22:35:46.484Z,-14.32
2023-02-04T22:38:15.445Z,-14.27
2023-02-04T22:40:44.254Z,-14.23
2023-02-04T22:43:16.016Z,-14.20
2023-02-04T22:45:44.862Z,-14.29
2023-02-04T22:48:13.733Z,-14.26
2023-02-04T22:50:44.063Z,-14.29
2023-02-04T22:53:13.821Z,-14.23
2023-02-04T22:55:42.645Z,-14.28
2023-02-04T22:58:11.707Z,-14.21
2023-02-04T23:00:43.908Z,-14.19
2023-02-04T23:03:13.800Z,-14.13
2023-02-04T23:05:42.774Z,-14.14
2023-02-04T23:08:11.738Z,-14.10
2023-02-04T23:10:41.288Z,-14.04
2023-02-04T23:13:10.443Z,-14.19
2023-02-04T23:15:39.657Z,-13.99
2023-02-04T23:18:09.213Z,-14.25
2023-02-04T23:20:40.904Z,-14.03
2023-02-04T23:23:15.460Z,-14.13
2023-02-04T23:25:46.933Z,-14.12
2023-02-04T23:28:16.745Z,-14.19
2023-02-04T23:30:46.029Z,-14.17
2023-02-04T23:33:15.130Z,-14.17
2023-02-04T23:35:45.066Z,-14.23
2023-02-04T23:38:14.613Z,-14.22
2023-02-04T23:40:43.503Z,-14.22
2023-02-04T23:43:12.813Z,-14.15
2023-02-04T23:45:41.737Z,-14.18
2023-02-04T23:48:11.927Z,-14.20
2023-02-04T23:50:42.125Z,-14.20
2023-02-04T23:53:12.750Z,-14.25
2023-02-04T23:55:41.689Z,-14.20
2023-02-04T23:58:10.581Z,-14.19
